sensor_id;sensor_type;location;lat;lon;timestamp;temperature;humidity
14705;DHT22;7442;50.840;3.396;2022-10-26T00:01:53;23.30;61.00
14705;DHT22;7442;50.840;3.396;2022-10-26T00:04:23;23.30;60.90
14705;DHT22;7442;50.840;3.396;2022-10-26T00:06:53;23.30;60.90
14705;DHT22;7442;50.840;3.396;2022-10-26T00:09:23;23.30;61.00
14705;DHT22;7442;50.840;3.396;2022-10-26T00:11:53;23.30;60.90
14705;DHT22;7442;50.840;3.396;2022-10-26T00:14:23;23.30;60.90
14705;DHT22;7442;50.840;3.396;2022-10-26T00:16:53;23.40;60.70
14705;DHT22;7442;50.840;3.396;2022-10-26T00:19:23;23.40;60.70
14705;DHT22;7442;50.840;3.396;2022-10-26T00:21:54;23.40;60.60
14705;DHT22;7442;50.840;3.396;2022-10-26T00:24:24;23.40;60.50
14705;DHT22;7442;50.840;3.396;2022-10-26T00:26:54;23.30;60.60
14705;DHT22;7442;50.840;3.396;2022-10-26T00:29:24;23.30;60.60
14705;DHT22;7442;50.840;3.396;2022-10-26T00:31:54;23.40;60.60
14705;DHT22;7442;50.840;3.396;2022-10-26T00:34:24;23.40;60.30
14705;DHT22;7442;50.840;3.396;2022-10-26T00:36:54;23.50;60.20
14705;DHT22;7442;50.840;3.396;2022-10-26T00:39:24;23.40;60.10
14705;DHT22;7442;50.840;3.396;2022-10-26T00:41:54;23.40;60.20
14705;DHT22;7442;50.840;3.396;2022-10-26T00:47:17;23.40;60.20
14705;DHT22;7442;50.840;3.396;2022-10-26T00:49:48;23.40;60.10
14705;DHT22;7442;50.840;3.396;2022-10-26T00:52:21;23.40;60.10
14705;DHT22;7442;50.840;3.396;2022-10-26T00:54:51;23.30;60.10
14705;DHT22;7442;50.840;3.396;2022-10-26T00:57:22;23.30;60.30
14705;DHT22;7442;50.840;3.396;2022-10-26T00:59:53;23.30;60.30
14705;DHT22;7442;50.840;3.396;2022-10-26T01:02:25;23.30;60.30
14705;DHT22;7442;50.840;3.396;2022-10-26T01:04:56;23.30;60.30
14705;DHT22;7442;50.840;3.396;2022-10-26T01:07:27;23.30;60.30
14705;DHT22;7442;50.840;3.396;2022-10-26T01:09:57;23.30;60.30
14705;DHT22;7442;50.840;3.396;2022-10-26T01:12:27;23.30;60.40
14705;DHT22;7442;50.840;3.396;2022-10-26T01:14:57;23.20;60.30
14705;DHT22;7442;50.840;3.396;2022-10-26T01:17:35;23.30;60.30
14705;DHT22;7442;50.840;3.396;2022-10-26T01:22:58;23.20;60.30
14705;DHT22;7442;50.840;3.396;2022-10-26T01:31:29;23.20;60.30
14705;DHT22;7442;50.840;3.396;2022-10-26T01:34:11;23.30;60.10
14705;DHT22;7442;50.840;3.396;2022-10-26T01:36:51;23.30;60.00
14705;DHT22;7442;50.840;3.396;2022-10-26T01:39:27;23.30;60.00
14705;DHT22;7442;50.840;3.396;2022-10-26T01:41:59;23.30;59.90
14705;DHT22;7442;50.840;3.396;2022-10-26T01:44:42;23.30;59.90
14705;DHT22;7442;50.840;3.396;2022-10-26T01:47:14;23.20;60.00
14705;DHT22;7442;50.840;3.396;2022-10-26T01:49:57;23.30;60.00
14705;DHT22;7442;50.840;3.396;2022-10-26T01:52:23;23.30;59.90
14705;DHT22;7442;50.840;3.396;2022-10-26T01:57:54;23.20;59.80
14705;DHT22;7442;50.840;3.396;2022-10-26T02:00:25;23.20;59.80
14705;DHT22;7442;50.840;3.396;2022-10-26T02:03:19;23.20;59.80
14705;DHT22;7442;50.840;3.396;2022-10-26T02:06:02;23.20;59.80
14705;DHT22;7442;50.840;3.396;2022-10-26T02:11:31;23.20;59.90
14705;DHT22;7442;50.840;3.396;2022-10-26T02:14:25;23.20;60.00
14705;DHT22;7442;50.840;3.396;2022-10-26T02:16:57;23.20;60.00
14705;DHT22;7442;50.840;3.396;2022-10-26T02:19:39;23.20;59.80
14705;DHT22;7442;50.840;3.396;2022-10-26T02:22:23;23.20;60.00
14705;DHT22;7442;50.840;3.396;2022-10-26T02:24:55;23.10;60.00
14705;DHT22;7442;50.840;3.396;2022-10-26T02:27:29;23.20;60.00
14705;DHT22;7442;50.840;3.396;2022-10-26T02:30:00;23.10;59.90
14705;DHT22;7442;50.840;3.396;2022-10-26T02:32:33;23.20;59.90
14705;DHT22;7442;50.840;3.396;2022-10-26T02:35:04;23.20;59.80
14705;DHT22;7442;50.840;3.396;2022-10-26T02:37:36;23.20;59.80
14705;DHT22;7442;50.840;3.396;2022-10-26T02:40:10;23.20;59.70
14705;DHT22;7442;50.840;3.396;2022-10-26T02:42:42;23.20;59.60
14705;DHT22;7442;50.840;3.396;2022-10-26T02:45:19;23.20;59.50
14705;DHT22;7442;50.840;3.396;2022-10-26T02:47:50;23.20;59.60
14705;DHT22;7442;50.840;3.396;2022-10-26T02:50:23;23.20;59.50
14705;DHT22;7442;50.840;3.396;2022-10-26T02:53:07;23.20;59.50
14705;DHT22;7442;50.840;3.396;2022-10-26T02:55:42;23.20;59.60
14705;DHT22;7442;50.840;3.396;2022-10-26T02:58:22;23.20;59.60
14705;DHT22;7442;50.840;3.396;2022-10-26T03:00:48;23.20;59.50
14705;DHT22;7442;50.840;3.396;2022-10-26T03:03:19;23.20;59.70
14705;DHT22;7442;50.840;3.396;2022-10-26T03:05:50;23.20;59.70
14705;DHT22;7442;50.840;3.396;2022-10-26T03:08:20;23.20;59.70
14705;DHT22;7442;50.840;3.396;2022-10-26T03:10:50;23.10;59.70
14705;DHT22;7442;50.840;3.396;2022-10-26T03:13:20;23.20;59.70
14705;DHT22;7442;50.840;3.396;2022-10-26T03:15:53;23.10;59.60
14705;DHT22;7442;50.840;3.396;2022-10-26T03:18:22;23.20;59.60
14705;DHT22;7442;50.840;3.396;2022-10-26T03:20:52;23.20;59.50
14705;DHT22;7442;50.840;3.396;2022-10-26T03:23:22;23.20;59.60
14705;DHT22;7442;50.840;3.396;2022-10-26T03:25:58;23.20;59.60
14705;DHT22;7442;50.840;3.396;2022-10-26T03:28:28;23.20;59.60
14705;DHT22;7442;50.840;3.396;2022-10-26T03:30:58;23.10;59.60
14705;DHT22;7442;50.840;3.396;2022-10-26T03:33:28;23.20;59.50
14705;DHT22;7442;50.840;3.396;2022-10-26T03:35:58;23.20;59.40
14705;DHT22;7442;50.840;3.396;2022-10-26T03:38:28;23.20;59.30
14705;DHT22;7442;50.840;3.396;2022-10-26T03:40:58;23.20;59.20
14705;DHT22;7442;50.840;3.396;2022-10-26T03:43:29;23.20;59.20
14705;DHT22;7442;50.840;3.396;2022-10-26T03:45:59;23.20;59.30
14705;DHT22;7442;50.840;3.396;2022-10-26T03:48:29;23.10;59.20
14705;DHT22;7442;50.840;3.396;2022-10-26T03:50:59;23.10;59.40
14705;DHT22;7442;50.840;3.396;2022-10-26T03:53:29;23.00;59.60
14705;DHT22;7442;50.840;3.396;2022-10-26T03:55:59;23.00;59.70
14705;DHT22;7442;50.840;3.396;2022-10-26T03:58:29;23.00;59.70
14705;DHT22;7442;50.840;3.396;2022-10-26T04:00:59;23.00;59.70
14705;DHT22;7442;50.840;3.396;2022-10-26T04:03:29;23.00;59.60
14705;DHT22;7442;50.840;3.396;2022-10-26T04:06:02;23.00;59.60
14705;DHT22;7442;50.840;3.396;2022-10-26T04:08:32;23.00;59.60
14705;DHT22;7442;50.840;3.396;2022-10-26T04:11:03;23.00;59.60
14705;DHT22;7442;50.840;3.396;2022-10-26T04:13:33;23.00;59.60
14705;DHT22;7442;50.840;3.396;2022-10-26T04:16:03;23.00;59.60
14705;DHT22;7442;50.840;3.396;2022-10-26T04:18:34;23.00;59.50
14705;DHT22;7442;50.840;3.396;2022-10-26T04:21:04;23.00;59.50
14705;DHT22;7442;50.840;3.396;2022-10-26T04:23:34;23.00;59.50
14705;DHT22;7442;50.840;3.396;2022-10-26T04:26:05;23.00;59.60
14705;DHT22;7442;50.840;3.396;2022-10-26T04:28:35;23.00;59.60
14705;DHT22;7442;50.840;3.396;2022-10-26T04:31:05;23.00;59.70
14705;DHT22;7442;50.840;3.396;2022-10-26T04:33:35;23.00;59.60
14705;DHT22;7442;50.840;3.396;2022-10-26T04:36:05;23.00;59.70
14705;DHT22;7442;50.840;3.396;2022-10-26T04:38:35;23.00;59.50
14705;DHT22;7442;50.840;3.396;2022-10-26T04:41:05;23.00;59.50
14705;DHT22;7442;50.840;3.396;2022-10-26T04:43:35;23.00;59.40
14705;DHT22;7442;50.840;3.396;2022-10-26T04:46:06;23.00;59.50
14705;DHT22;7442;50.840;3.396;2022-10-26T04:48:37;22.90;59.50
14705;DHT22;7442;50.840;3.396;2022-10-26T04:51:07;22.90;59.60
14705;DHT22;7442;50.840;3.396;2022-10-26T04:53:37;22.90;59.60
14705;DHT22;7442;50.840;3.396;2022-10-26T04:56:09;22.80;59.70
14705;DHT22;7442;50.840;3.396;2022-10-26T04:58:43;22.80;59.80
14705;DHT22;7442;50.840;3.396;2022-10-26T05:01:13;22.80;59.80
14705;DHT22;7442;50.840;3.396;2022-10-26T05:03:43;22.80;59.60
14705;DHT22;7442;50.840;3.396;2022-10-26T05:06:13;22.90;59.60
14705;DHT22;7442;50.840;3.396;2022-10-26T05:08:43;22.90;59.70
14705;DHT22;7442;50.840;3.396;2022-10-26T05:11:13;22.80;59.60
14705;DHT22;7442;50.840;3.396;2022-10-26T05:13:45;22.80;60.20
14705;DHT22;7442;50.840;3.396;2022-10-26T05:16:16;22.80;60.00
14705;DHT22;7442;50.840;3.396;2022-10-26T05:18:49;22.90;60.00
14705;DHT22;7442;50.840;3.396;2022-10-26T05:21:19;22.90;60.00
14705;DHT22;7442;50.840;3.396;2022-10-26T05:23:52;22.90;60.20
14705;DHT22;7442;50.840;3.396;2022-10-26T05:26:23;22.80;60.40
14705;DHT22;7442;50.840;3.396;2022-10-26T05:28:53;22.80;60.70
14705;DHT22;7442;50.840;3.396;2022-10-26T05:31:29;22.80;60.70
14705;DHT22;7442;50.840;3.396;2022-10-26T05:33:59;22.80;60.60
14705;DHT22;7442;50.840;3.396;2022-10-26T05:36:29;22.90;60.60
14705;DHT22;7442;50.840;3.396;2022-10-26T05:39:00;22.90;60.80
14705;DHT22;7442;50.840;3.396;2022-10-26T05:41:30;22.90;61.00
14705;DHT22;7442;50.840;3.396;2022-10-26T05:44:00;22.90;60.90
14705;DHT22;7442;50.840;3.396;2022-10-26T05:46:30;22.90;60.80
14705;DHT22;7442;50.840;3.396;2022-10-26T05:49:00;22.90;60.80
14705;DHT22;7442;50.840;3.396;2022-10-26T05:51:32;22.90;60.70
14705;DHT22;7442;50.840;3.396;2022-10-26T05:54:04;23.00;60.70
14705;DHT22;7442;50.840;3.396;2022-10-26T05:56:36;22.90;60.70
14705;DHT22;7442;50.840;3.396;2022-10-26T05:59:15;22.90;60.70
14705;DHT22;7442;50.840;3.396;2022-10-26T06:04:34;22.90;60.60
14705;DHT22;7442;50.840;3.396;2022-10-26T06:07:12;22.90;60.60
14705;DHT22;7442;50.840;3.396;2022-10-26T06:09:42;22.90;60.70
14705;DHT22;7442;50.840;3.396;2022-10-26T06:12:15;22.90;60.80
14705;DHT22;7442;50.840;3.396;2022-10-26T06:14:45;22.90;60.70
14705;DHT22;7442;50.840;3.396;2022-10-26T06:17:30;22.80;60.70
14705;DHT22;7442;50.840;3.396;2022-10-26T06:20:17;22.90;60.70
14705;DHT22;7442;50.840;3.396;2022-10-26T06:25:52;22.80;61.50
14705;DHT22;7442;50.840;3.396;2022-10-26T06:31:11;22.80;60.70
14705;DHT22;7442;50.840;3.396;2022-10-26T06:33:42;22.90;60.60
14705;DHT22;7442;50.840;3.396;2022-10-26T06:36:20;22.90;60.60
14705;DHT22;7442;50.840;3.396;2022-10-26T06:39:01;22.80;60.70
14705;DHT22;7442;50.840;3.396;2022-10-26T06:41:29;22.80;60.70
14705;DHT22;7442;50.840;3.396;2022-10-26T06:43:59;22.80;60.60
14705;DHT22;7442;50.840;3.396;2022-10-26T06:46:47;22.80;61.40
14705;DHT22;7442;50.840;3.396;2022-10-26T06:49:26;22.90;60.60
14705;DHT22;7442;50.840;3.396;2022-10-26T06:54:49;22.90;60.50
14705;DHT22;7442;50.840;3.396;2022-10-26T06:57:24;22.90;60.40
14705;DHT22;7442;50.840;3.396;2022-10-26T07:00:04;22.90;60.50
14705;DHT22;7442;50.840;3.396;2022-10-26T07:02:30;22.80;60.50
14705;DHT22;7442;50.840;3.396;2022-10-26T07:05:00;22.80;60.70
14705;DHT22;7442;50.840;3.396;2022-10-26T07:07:30;22.80;60.90
14705;DHT22;7442;50.840;3.396;2022-10-26T07:10:01;22.80;60.80
14705;DHT22;7442;50.840;3.396;2022-10-26T07:12:32;22.80;60.90
14705;DHT22;7442;50.840;3.396;2022-10-26T07:15:03;22.80;60.80
14705;DHT22;7442;50.840;3.396;2022-10-26T07:17:47;22.80;60.70
14705;DHT22;7442;50.840;3.396;2022-10-26T07:20:19;22.80;60.90
14705;DHT22;7442;50.840;3.396;2022-10-26T07:22:54;22.80;61.10
14705;DHT22;7442;50.840;3.396;2022-10-26T07:25:25;22.90;60.80
14705;DHT22;7442;50.840;3.396;2022-10-26T07:27:59;23.00;60.80
14705;DHT22;7442;50.840;3.396;2022-10-26T07:30:30;23.00;60.90
14705;DHT22;7442;50.840;3.396;2022-10-26T07:33:02;23.10;60.80
14705;DHT22;7442;50.840;3.396;2022-10-26T07:35:33;23.20;61.20
14705;DHT22;7442;50.840;3.396;2022-10-26T07:38:03;23.20;61.20
14705;DHT22;7442;50.840;3.396;2022-10-26T07:40:34;23.30;60.90
14705;DHT22;7442;50.840;3.396;2022-10-26T07:43:05;23.30;60.80
14705;DHT22;7442;50.840;3.396;2022-10-26T07:45:35;23.30;60.80
14705;DHT22;7442;50.840;3.396;2022-10-26T07:48:05;23.20;60.80
14705;DHT22;7442;50.840;3.396;2022-10-26T07:50:35;23.10;61.20
14705;DHT22;7442;50.840;3.396;2022-10-26T07:53:05;23.20;61.10
14705;DHT22;7442;50.840;3.396;2022-10-26T07:55:37;23.10;61.20
14705;DHT22;7442;50.840;3.396;2022-10-26T07:58:07;23.20;61.20
14705;DHT22;7442;50.840;3.396;2022-10-26T08:00:37;23.20;61.10
14705;DHT22;7442;50.840;3.396;2022-10-26T08:03:07;23.20;61.00
14705;DHT22;7442;50.840;3.396;2022-10-26T08:05:37;23.20;61.00
14705;DHT22;7442;50.840;3.396;2022-10-26T08:08:07;23.20;60.80
14705;DHT22;7442;50.840;3.396;2022-10-26T08:10:43;23.20;60.90
14705;DHT22;7442;50.840;3.396;2022-10-26T08:13:13;23.20;61.00
14705;DHT22;7442;50.840;3.396;2022-10-26T08:15:43;23.20;61.00
14705;DHT22;7442;50.840;3.396;2022-10-26T08:18:14;23.20;61.00
14705;DHT22;7442;50.840;3.396;2022-10-26T08:20:44;23.20;61.10
14705;DHT22;7442;50.840;3.396;2022-10-26T08:23:14;23.20;60.90
14705;DHT22;7442;50.840;3.396;2022-10-26T08:25:45;23.20;60.60
14705;DHT22;7442;50.840;3.396;2022-10-26T08:28:15;23.30;60.70
14705;DHT22;7442;50.840;3.396;2022-10-26T08:30:45;23.20;61.00
14705;DHT22;7442;50.840;3.396;2022-10-26T08:33:15;23.30;61.00
14705;DHT22;7442;50.840;3.396;2022-10-26T08:35:45;23.30;60.70
14705;DHT22;7442;50.840;3.396;2022-10-26T08:38:15;23.30;60.70
14705;DHT22;7442;50.840;3.396;2022-10-26T08:40:45;23.40;60.50
14705;DHT22;7442;50.840;3.396;2022-10-26T08:43:37;23.40;61.00
14705;DHT22;7442;50.840;3.396;2022-10-26T08:46:14;23.30;60.80
14705;DHT22;7442;50.840;3.396;2022-10-26T08:48:53;23.40;60.70
14705;DHT22;7442;50.840;3.396;2022-10-26T08:51:26;23.40;61.30
14705;DHT22;7442;50.840;3.396;2022-10-26T08:54:01;23.40;61.30
14705;DHT22;7442;50.840;3.396;2022-10-26T08:56:38;23.40;61.10
14705;DHT22;7442;50.840;3.396;2022-10-26T09:01:41;23.40;61.60
14705;DHT22;7442;50.840;3.396;2022-10-26T09:04:12;23.40;61.30
14705;DHT22;7442;50.840;3.396;2022-10-26T09:07:06;23.50;61.30
14705;DHT22;7442;50.840;3.396;2022-10-26T09:12:43;23.40;61.30
14705;DHT22;7442;50.840;3.396;2022-10-26T09:15:16;23.50;60.50
14705;DHT22;7442;50.840;3.396;2022-10-26T09:20:41;23.50;61.30
14705;DHT22;7442;50.840;3.396;2022-10-26T09:23:24;23.50;60.80
14705;DHT22;7442;50.840;3.396;2022-10-26T09:25:56;23.50;60.90
14705;DHT22;7442;50.840;3.396;2022-10-26T09:28:27;23.60;61.50
14705;DHT22;7442;50.840;3.396;2022-10-26T09:30:59;23.50;61.10
14705;DHT22;7442;50.840;3.396;2022-10-26T09:33:35;23.70;60.50
14705;DHT22;7442;50.840;3.396;2022-10-26T09:36:09;23.70;60.30
14705;DHT22;7442;50.840;3.396;2022-10-26T09:38:57;23.80;60.40
14705;DHT22;7442;50.840;3.396;2022-10-26T09:41:43;23.80;60.50
14705;DHT22;7442;50.840;3.396;2022-10-26T09:47:16;23.90;61.20
14705;DHT22;7442;50.840;3.396;2022-10-26T09:49:52;23.80;60.50
14705;DHT22;7442;50.840;3.396;2022-10-26T09:52:22;23.80;60.40
14705;DHT22;7442;50.840;3.396;2022-10-26T09:54:52;23.90;60.30
14705;DHT22;7442;50.840;3.396;2022-10-26T09:57:23;23.90;60.90
14705;DHT22;7442;50.840;3.396;2022-10-26T09:59:53;24.00;60.00
14705;DHT22;7442;50.840;3.396;2022-10-26T10:02:37;24.10;59.90
14705;DHT22;7442;50.840;3.396;2022-10-26T10:05:31;24.10;59.70
14705;DHT22;7442;50.840;3.396;2022-10-26T10:07:40;24.10;59.70
14705;DHT22;7442;50.840;3.396;2022-10-26T10:10:21;24.10;59.70
14705;DHT22;7442;50.840;3.396;2022-10-26T10:12:51;24.20;59.80
14705;DHT22;7442;50.840;3.396;2022-10-26T10:15:23;24.10;59.70
14705;DHT22;7442;50.840;3.396;2022-10-26T10:17:54;24.10;59.90
14705;DHT22;7442;50.840;3.396;2022-10-26T10:20:30;24.10;59.90
14705;DHT22;7442;50.840;3.396;2022-10-26T10:22:59;24.20;60.70
14705;DHT22;7442;50.840;3.396;2022-10-26T10:25:37;24.30;60.30
14705;DHT22;7442;50.840;3.396;2022-10-26T10:28:26;24.40;59.90
14705;DHT22;7442;50.840;3.396;2022-10-26T10:30:59;24.50;60.20
14705;DHT22;7442;50.840;3.396;2022-10-26T10:33:35;24.50;59.70
14705;DHT22;7442;50.840;3.396;2022-10-26T10:36:13;24.70;59.80
14705;DHT22;7442;50.840;3.396;2022-10-26T10:38:41;24.80;59.70
14705;DHT22;7442;50.840;3.396;2022-10-26T10:41:20;24.80;59.60
14705;DHT22;7442;50.840;3.396;2022-10-26T10:46:43;25.00;59.70
14705;DHT22;7442;50.840;3.396;2022-10-26T10:49:24;25.00;59.80
14705;DHT22;7442;50.840;3.396;2022-10-26T10:51:57;25.00;60.00
14705;DHT22;7442;50.840;3.396;2022-10-26T10:54:32;25.20;59.60
14705;DHT22;7442;50.840;3.396;2022-10-26T10:59:59;25.30;59.70
14705;DHT22;7442;50.840;3.396;2022-10-26T11:02:42;25.20;59.60
14705;DHT22;7442;50.840;3.396;2022-10-26T11:05:32;25.10;59.80
14705;DHT22;7442;50.840;3.396;2022-10-26T11:08:20;25.00;60.10
14705;DHT22;7442;50.840;3.396;2022-10-26T11:10:48;24.80;60.90
14705;DHT22;7442;50.840;3.396;2022-10-26T11:16:23;24.80;61.00
14705;DHT22;7442;50.840;3.396;2022-10-26T11:21:30;24.80;60.90
14705;DHT22;7442;50.840;3.396;2022-10-26T11:27:16;24.90;60.90
14705;DHT22;7442;50.840;3.396;2022-10-26T11:30:01;24.80;60.90
14705;DHT22;7442;50.840;3.396;2022-10-26T11:36:15;24.80;60.90
14705;DHT22;7442;50.840;3.396;2022-10-26T11:43:45;24.80;58.70
14705;DHT22;7442;50.840;3.396;2022-10-26T11:46:25;24.70;58.80
14705;DHT22;7442;50.840;3.396;2022-10-26T11:54:32;24.50;59.00
14705;DHT22;7442;50.840;3.396;2022-10-26T11:57:03;24.50;59.10
14705;DHT22;7442;50.840;3.396;2022-10-26T11:59:40;24.60;59.00
14705;DHT22;7442;50.840;3.396;2022-10-26T12:02:13;24.60;58.70
14705;DHT22;7442;50.840;3.396;2022-10-26T12:04:46;24.80;58.50
14705;DHT22;7442;50.840;3.396;2022-10-26T12:07:23;24.80;58.30
14705;DHT22;7442;50.840;3.396;2022-10-26T12:09:53;24.90;58.20
14705;DHT22;7442;50.840;3.396;2022-10-26T12:12:43;24.90;58.10
14705;DHT22;7442;50.840;3.396;2022-10-26T12:15:40;24.90;58.60
14705;DHT22;7442;50.840;3.396;2022-10-26T12:18:16;25.00;57.90
14705;DHT22;7442;50.840;3.396;2022-10-26T12:23:22;25.00;57.90
14705;DHT22;7442;50.840;3.396;2022-10-26T12:28:42;25.10;57.20
14705;DHT22;7442;50.840;3.396;2022-10-26T12:34:13;25.20;57.40
14705;DHT22;7442;50.840;3.396;2022-10-26T12:39:34;25.10;57.30
14705;DHT22;7442;50.840;3.396;2022-10-26T12:42:09;25.10;57.50
14705;DHT22;7442;50.840;3.396;2022-10-26T12:50:01;25.10;57.60
14705;DHT22;7442;50.840;3.396;2022-10-26T12:52:53;25.00;57.80
14705;DHT22;7442;50.840;3.396;2022-10-26T12:55:34;25.00;57.80
14705;DHT22;7442;50.840;3.396;2022-10-26T13:04:00;25.00;57.90
14705;DHT22;7442;50.840;3.396;2022-10-26T13:06:51;25.00;57.90
14705;DHT22;7442;50.840;3.396;2022-10-26T13:09:26;24.90;57.90
14705;DHT22;7442;50.840;3.396;2022-10-26T13:11:59;24.90;58.10
14705;DHT22;7442;50.840;3.396;2022-10-26T13:14:38;24.90;58.20
14705;DHT22;7442;50.840;3.396;2022-10-26T13:17:20;24.90;58.10
14705;DHT22;7442;50.840;3.396;2022-10-26T13:19:44;24.90;58.00
14705;DHT22;7442;50.840;3.396;2022-10-26T13:22:20;25.00;58.00
14705;DHT22;7442;50.840;3.396;2022-10-26T13:24:56;24.90;58.10
14705;DHT22;7442;50.840;3.396;2022-10-26T13:30:44;25.00;57.90
14705;DHT22;7442;50.840;3.396;2022-10-26T13:32:53;25.00;57.90
14705;DHT22;7442;50.840;3.396;2022-10-26T13:35:25;25.00;58.00
14705;DHT22;7442;50.840;3.396;2022-10-26T13:37:56;25.00;58.00
14705;DHT22;7442;50.840;3.396;2022-10-26T13:40:29;25.00;58.00
14705;DHT22;7442;50.840;3.396;2022-10-26T13:43:04;25.00;58.00
14705;DHT22;7442;50.840;3.396;2022-10-26T13:45:53;25.00;58.10
14705;DHT22;7442;50.840;3.396;2022-10-26T13:48:30;25.10;58.40
14705;DHT22;7442;50.840;3.396;2022-10-26T13:51:02;25.10;57.90
14705;DHT22;7442;50.840;3.396;2022-10-26T13:53:48;25.00;57.90
14705;DHT22;7442;50.840;3.396;2022-10-26T13:56:32;25.10;57.90
14705;DHT22;7442;50.840;3.396;2022-10-26T13:59:04;25.00;58.00
14705;DHT22;7442;50.840;3.396;2022-10-26T14:01:37;25.10;57.90
14705;DHT22;7442;50.840;3.396;2022-10-26T14:04:24;25.10;57.90
14705;DHT22;7442;50.840;3.396;2022-10-26T14:06:50;25.10;57.90
14705;DHT22;7442;50.840;3.396;2022-10-26T14:09:21;25.10;58.00
14705;DHT22;7442;50.840;3.396;2022-10-26T14:11:54;25.10;57.90
14705;DHT22;7442;50.840;3.396;2022-10-26T14:14:33;25.10;57.90
14705;DHT22;7442;50.840;3.396;2022-10-26T14:17:02;25.10;57.90
14705;DHT22;7442;50.840;3.396;2022-10-26T14:19:39;25.10;58.10
14705;DHT22;7442;50.840;3.396;2022-10-26T14:22:06;25.10;58.00
14705;DHT22;7442;50.840;3.396;2022-10-26T14:24:37;25.10;58.00
14705;DHT22;7442;50.840;3.396;2022-10-26T14:27:20;25.10;58.00
14705;DHT22;7442;50.840;3.396;2022-10-26T14:29:52;25.00;58.10
14705;DHT22;7442;50.840;3.396;2022-10-26T14:32:30;25.10;58.10
14705;DHT22;7442;50.840;3.396;2022-10-26T14:34:56;25.10;58.20
14705;DHT22;7442;50.840;3.396;2022-10-26T14:37:36;25.00;58.30
14705;DHT22;7442;50.840;3.396;2022-10-26T14:40:11;25.00;58.30
14705;DHT22;7442;50.840;3.396;2022-10-26T14:42:42;25.00;58.20
14705;DHT22;7442;50.840;3.396;2022-10-26T14:45:35;25.10;57.90
14705;DHT22;7442;50.840;3.396;2022-10-26T14:48:14;25.10;58.00
14705;DHT22;7442;50.840;3.396;2022-10-26T14:50:40;25.00;58.10
14705;DHT22;7442;50.840;3.396;2022-10-26T14:53:14;25.00;58.30
14705;DHT22;7442;50.840;3.396;2022-10-26T14:55:47;25.00;58.30
14705;DHT22;7442;50.840;3.396;2022-10-26T14:58:31;24.90;58.70
14705;DHT22;7442;50.840;3.396;2022-10-26T15:01:27;25.00;59.00
14705;DHT22;7442;50.840;3.396;2022-10-26T15:04:03;25.10;58.90
14705;DHT22;7442;50.840;3.396;2022-10-26T15:06:41;25.20;58.60
14705;DHT22;7442;50.840;3.396;2022-10-26T15:09:45;25.20;58.50
14705;DHT22;7442;50.840;3.396;2022-10-26T15:12:37;25.20;58.40
14705;DHT22;7442;50.840;3.396;2022-10-26T15:17:50;25.00;58.50
14705;DHT22;7442;50.840;3.396;2022-10-26T15:20:25;24.90;59.10
14705;DHT22;7442;50.840;3.396;2022-10-26T15:23:04;24.80;59.30
14705;DHT22;7442;50.840;3.396;2022-10-26T15:25:32;24.80;59.50
14705;DHT22;7442;50.840;3.396;2022-10-26T15:28:17;24.80;59.50
14705;DHT22;7442;50.840;3.396;2022-10-26T15:30:57;24.80;59.60
14705;DHT22;7442;50.840;3.396;2022-10-26T15:33:19;24.90;59.80
14705;DHT22;7442;50.840;3.396;2022-10-26T15:35:50;24.90;59.50
14705;DHT22;7442;50.840;3.396;2022-10-26T15:38:21;24.90;59.50
14705;DHT22;7442;50.840;3.396;2022-10-26T15:40:51;24.90;59.60
14705;DHT22;7442;50.840;3.396;2022-10-26T15:43:21;24.90;59.70
14705;DHT22;7442;50.840;3.396;2022-10-26T15:45:51;24.90;59.70
14705;DHT22;7442;50.840;3.396;2022-10-26T15:48:25;24.90;59.80
14705;DHT22;7442;50.840;3.396;2022-10-26T15:50:57;25.00;60.50
14705;DHT22;7442;50.840;3.396;2022-10-26T15:53:27;25.00;59.80
14705;DHT22;7442;50.840;3.396;2022-10-26T15:55:58;24.90;59.80
14705;DHT22;7442;50.840;3.396;2022-10-26T15:58:30;25.10;59.50
14705;DHT22;7442;50.840;3.396;2022-10-26T16:01:00;25.10;59.50
14705;DHT22;7442;50.840;3.396;2022-10-26T16:03:30;25.00;59.70
14705;DHT22;7442;50.840;3.396;2022-10-26T16:06:07;25.00;59.90
14705;DHT22;7442;50.840;3.396;2022-10-26T16:08:36;25.20;59.70
14705;DHT22;7442;50.840;3.396;2022-10-26T16:11:07;25.20;60.10
14705;DHT22;7442;50.840;3.396;2022-10-26T16:13:37;25.20;59.90
14705;DHT22;7442;50.840;3.396;2022-10-26T16:16:11;25.00;60.00
14705;DHT22;7442;50.840;3.396;2022-10-26T16:18:42;25.00;60.40
14705;DHT22;7442;50.840;3.396;2022-10-26T16:21:15;24.90;61.20
14705;DHT22;7442;50.840;3.396;2022-10-26T16:23:48;24.90;60.90
14705;DHT22;7442;50.840;3.396;2022-10-26T16:26:19;24.90;61.20
14705;DHT22;7442;50.840;3.396;2022-10-26T16:28:49;25.20;60.40
14705;DHT22;7442;50.840;3.396;2022-10-26T16:31:20;25.40;59.60
14705;DHT22;7442;50.840;3.396;2022-10-26T16:33:50;25.50;59.30
14705;DHT22;7442;50.840;3.396;2022-10-26T16:36:20;25.50;59.30
14705;DHT22;7442;50.840;3.396;2022-10-26T16:38:51;25.50;59.40
14705;DHT22;7442;50.840;3.396;2022-10-26T16:41:21;25.50;59.30
14705;DHT22;7442;50.840;3.396;2022-10-26T16:43:51;25.40;59.40
14705;DHT22;7442;50.840;3.396;2022-10-26T16:46:21;25.40;59.50
14705;DHT22;7442;50.840;3.396;2022-10-26T16:48:51;25.30;59.60
14705;DHT22;7442;50.840;3.396;2022-10-26T16:51:23;25.30;59.70
14705;DHT22;7442;50.840;3.396;2022-10-26T16:53:57;25.40;59.80
14705;DHT22;7442;50.840;3.396;2022-10-26T16:56:29;25.30;59.70
14705;DHT22;7442;50.840;3.396;2022-10-26T16:58:59;25.30;59.60
14705;DHT22;7442;50.840;3.396;2022-10-26T17:01:29;25.30;59.70
14705;DHT22;7442;50.840;3.396;2022-10-26T17:04:00;24.90;61.00
14705;DHT22;7442;50.840;3.396;2022-10-26T17:06:31;24.90;61.10
14705;DHT22;7442;50.840;3.396;2022-10-26T17:09:01;24.90;60.90
14705;DHT22;7442;50.840;3.396;2022-10-26T17:11:31;24.90;61.60
14705;DHT22;7442;50.840;3.396;2022-10-26T17:14:01;24.90;61.20
14705;DHT22;7442;50.840;3.396;2022-10-26T17:16:31;24.80;61.30
14705;DHT22;7442;50.840;3.396;2022-10-26T17:19:02;24.70;61.80
14705;DHT22;7442;50.840;3.396;2022-10-26T17:21:33;24.70;62.20
14705;DHT22;7442;50.840;3.396;2022-10-26T17:24:04;24.60;62.30
14705;DHT22;7442;50.840;3.396;2022-10-26T17:26:35;24.60;62.40
14705;DHT22;7442;50.840;3.396;2022-10-26T17:29:05;24.60;62.20
14705;DHT22;7442;50.840;3.396;2022-10-26T17:31:36;24.60;62.30
14705;DHT22;7442;50.840;3.396;2022-10-26T17:34:06;24.70;62.00
14705;DHT22;7442;50.840;3.396;2022-10-26T17:36:36;24.70;62.10
14705;DHT22;7442;50.840;3.396;2022-10-26T17:39:06;24.70;62.00
14705;DHT22;7442;50.840;3.396;2022-10-26T17:41:38;24.60;62.10
14705;DHT22;7442;50.840;3.396;2022-10-26T17:44:08;24.60;62.40
14705;DHT22;7442;50.840;3.396;2022-10-26T17:46:38;24.60;62.40
14705;DHT22;7442;50.840;3.396;2022-10-26T17:49:08;24.50;62.50
14705;DHT22;7442;50.840;3.396;2022-10-26T17:51:38;24.50;62.70
14705;DHT22;7442;50.840;3.396;2022-10-26T17:54:08;24.50;62.80
14705;DHT22;7442;50.840;3.396;2022-10-26T17:56:38;24.50;62.90
14705;DHT22;7442;50.840;3.396;2022-10-26T17:59:10;24.50;62.90
14705;DHT22;7442;50.840;3.396;2022-10-26T18:01:41;24.50;62.80